createdAt,value
2023-01-21T00:01:23.446Z,98066.00
2023-01-21T00:03:49.638Z,98062.00
2023-01-21T00:06:15.766Z,98076.00
2023-01-21T00:08:42.776Z,98072.00
2023-01-21T00:11:14.945Z,98069.00
2023-01-21T00:13:42.789Z,98075.00
2023-01-21T00:16:10.707Z,98083.00
2023-01-21T00:18:36.994Z,98066.00
2023-01-21T00:21:03.204Z,98069.00
2023-01-21T00:23:29.332Z,98071.00
2023-01-21T00:26:01.463Z,98091.00
2023-01-21T00:28:30.340Z,98093.00
2023-01-21T00:30:59.485Z,98099.00
2023-01-21T00:33:26.692Z,98092.00
2023-01-21T00:36:02.501Z,98102.00
2023-01-21T00:38:29.525Z,98095.00
2023-01-21T00:41:04.849Z,98112.00
2023-01-21T00:43:31.520Z,98101.00
2023-01-21T00:45:58.402Z,98103.00
2023-01-21T00:48:24.927Z,98104.00
2023-01-21T00:50:53.038Z,98119.00
2023-01-21T00:53:19.160Z,98117.00
2023-01-21T00:55:45.368Z,98114.00
2023-01-21T00:58:11.544Z,98118.00
2023-01-21T01:00:37.729Z,98114.00
2023-01-21T01:03:03.958Z,98123.00
2023-01-21T01:05:30.159Z,98138.00
2023-01-21T01:07:56.258Z,98133.00
2023-01-21T01:10:22.809Z,98143.00
2023-01-21T01:12:48.939Z,98141.00
2023-01-21T01:15:15.119Z,98168.00
2023-01-21T01:17:41.243Z,98167.00
2023-01-21T01:20:08.350Z,98156.00
2023-01-21T01:22:34.702Z,98173.00
2023-01-21T01:25:00.828Z,98159.00
2023-01-21T01:27:29.448Z,98171.00
2023-01-21T01:29:55.640Z,98179.00
2023-01-21T01:32:21.908Z,98178.00
2023-01-21T01:34:48.089Z,98176.00
2023-01-21T01:37:14.454Z,98182.00
2023-01-21T01:39:40.591Z,98202.00
2023-01-21T01:42:14.898Z,98206.00
2023-01-21T01:45:24.531Z,98210.00
2023-01-21T01:48:00.263Z,98218.00
2023-01-21T01:50:33.572Z,98225.00
2023-01-21T01:53:01.464Z,98212.00
2023-01-21T01:55:33.681Z,98224.00
2023-01-21T01:58:07.827Z,98223.00
2023-01-21T02:00:34.675Z,98227.00
2023-01-21T02:03:20.006Z,98222.00
2023-01-21T02:05:47.626Z,98232.00
2023-01-21T02:08:14.153Z,98234.00
2023-01-21T02:10:40.310Z,98267.00
2023-01-21T02:13:06.628Z,98238.00
2023-01-21T02:15:54.542Z,98248.00
2023-01-21T02:18:35.908Z,98242.00
2023-01-21T02:21:29.470Z,98259.00
2023-01-21T02:24:42.415Z,98258.00
2023-01-21T02:27:30.848Z,98255.00
2023-01-21T02:30:30.182Z,98260.00
2023-01-21T02:33:15.082Z,98258.00
2023-01-21T02:36:18.443Z,98278.00
2023-01-21T02:39:13.510Z,98266.00
2023-01-21T02:42:11.984Z,98278.00
2023-01-21T02:44:53.497Z,98273.00
2023-01-21T02:47:31.055Z,98298.00
2023-01-21T02:50:07.593Z,98285.00
2023-01-21T02:52:36.787Z,98294.00
2023-01-21T02:55:14.430Z,98296.00
2023-01-21T02:57:55.522Z,98295.00
2023-01-21T03:00:31.029Z,98305.00
2023-01-21T03:03:02.637Z,98295.00
2023-01-21T03:06:07.805Z,98302.00
2023-01-21T03:08:55.512Z,98305.00
2023-01-21T03:11:22.649Z,98305.00
2023-01-21T03:14:17.289Z,98312.00
2023-01-21T03:17:00.124Z,98315.00
2023-01-21T03:20:15.988Z,98310.00
2023-01-21T03:22:44.603Z,98310.00
2023-01-21T03:25:14.183Z,98312.00
2023-01-21T03:27:45.490Z,98316.00
2023-01-21T03:30:19.628Z,98323.00
2023-01-21T03:32:51.523Z,98317.00
2023-01-21T03:35:39.229Z,98309.00
2023-01-21T03:38:41.802Z,98307.00
2023-01-21T03:41:21.677Z,98311.00
2023-01-21T03:43:48.328Z,98310.00
2023-01-21T03:46:24.209Z,98306.00
2023-01-21T03:49:01.295Z,98314.00
2023-01-21T03:51:38.416Z,98311.00
2023-01-21T03:54:05.262Z,98315.00
2023-01-21T03:56:31.458Z,98311.00
2023-01-21T03:58:57.832Z,98330.00
2023-01-21T04:01:24.606Z,98324.00
2023-01-21T04:03:50.892Z,98342.00
2023-01-21T04:06:20.336Z,98318.00
2023-01-21T04:08:47.026Z,98327.00
2023-01-21T04:11:13.469Z,98327.00
2023-01-21T04:13:39.946Z,98334.00
2023-01-21T04:16:06.893Z,98324.00
2023-01-21T04:18:33.904Z,98337.00
2023-01-21T04:21:01.325Z,98349.00
2023-01-21T04:23:27.609Z,98334.00
2023-01-21T04:25:53.871Z,98347.00
2023-01-21T04:28:20.637Z,98346.00
2023-01-21T04:30:47.748Z,98341.00
2023-01-21T04:33:14.594Z,98369.00
2023-01-21T04:35:41.226Z,98360.00
2023-01-21T04:38:07.360Z,98362.00
2023-01-21T04:40:33.823Z,98366.00
2023-01-21T04:43:00.543Z,98357.00
2023-01-21T04:45:26.879Z,98355.00
2023-01-21T04:47:53.261Z,98368.00
2023-01-21T04:50:19.706Z,98373.00
2023-01-21T04:52:45.806Z,98351.00
2023-01-21T04:55:11.930Z,98357.00
2023-01-21T04:57:38.085Z,98363.00
2023-01-21T05:00:06.784Z,98375.00
2023-01-21T05:02:33.912Z,98375.00
2023-01-21T05:05:00.133Z,98382.00
2023-01-21T05:07:27.968Z,98362.00
2023-01-21T05:09:54.706Z,98365.00
2023-01-21T05:12:20.877Z,98372.00
2023-01-21T05:14:47.009Z,98371.00
2023-01-21T05:17:13.272Z,98362.00
2023-01-21T05:19:39.396Z,98372.00
2023-01-21T05:22:05.581Z,98373.00
2023-01-21T05:24:31.981Z,98376.00
2023-01-21T05:26:58.081Z,98397.00
2023-01-21T05:29:24.746Z,98387.00
2023-01-21T05:31:51.155Z,98384.00
2023-01-21T05:34:17.622Z,98401.00
2023-01-21T05:36:43.721Z,98384.00
2023-01-21T05:39:09.902Z,98395.00
2023-01-21T05:41:36.011Z,98414.00
2023-01-21T05:44:02.171Z,98405.00
2023-01-21T05:46:28.377Z,98412.00
2023-01-21T05:48:54.642Z,98412.00
2023-01-21T05:51:20.831Z,98405.00
2023-01-21T05:53:46.960Z,98421.00
2023-01-21T05:56:13.091Z,98415.00
2023-01-21T05:58:39.208Z,98410.00
2023-01-21T06:01:05.303Z,98420.00
2023-01-21T06:03:31.460Z,98430.00
2023-01-21T06:05:57.632Z,98442.00
2023-01-21T06:08:23.798Z,98441.00
2023-01-21T06:10:49.935Z,98442.00
2023-01-21T06:13:16.331Z,98439.00
2023-01-21T06:15:42.505Z,98440.00
2023-01-21T06:18:08.634Z,98437.00
2023-01-21T06:20:35.871Z,98446.00
2023-01-21T06:23:02.856Z,98435.00
2023-01-21T06:25:30.973Z,98446.00
2023-01-21T06:27:57.921Z,98436.00
2023-01-21T06:30:25.005Z,98439.00
2023-01-21T06:32:51.968Z,98443.00
2023-01-21T06:35:18.520Z,98436.00
2023-01-21T06:37:45.625Z,98447.00
2023-01-21T06:40:13.213Z,98452.00
2023-01-21T06:42:39.467Z,98462.00
2023-01-21T06:45:06.515Z,98447.00
2023-01-21T06:47:32.672Z,98457.00
2023-01-21T06:49:58.811Z,98473.00
2023-01-21T06:52:24.941Z,98476.00
2023-01-21T06:54:51.076Z,98476.00
2023-01-21T06:57:17.184Z,98480.00
2023-01-21T06:59:43.326Z,98494.00
2023-01-21T07:02:12.315Z,98492.00
2023-01-21T07:04:38.639Z,98477.00
2023-01-21T07:07:04.777Z,98490.00
2023-01-21T07:09:30.886Z,98502.00
2023-01-21T07:11:57.804Z,98491.00
2023-01-21T07:14:23.993Z,98495.00
2023-01-21T07:16:50.078Z,98512.00
2023-01-21T07:19:16.183Z,98512.00
2023-01-21T07:21:42.281Z,98521.00
2023-01-21T07:24:08.676Z,98513.00
2023-01-21T07:26:37.218Z,98524.00
2023-01-21T07:29:06.204Z,98524.00
2023-01-21T07:31:33.500Z,98529.00
2023-01-21T07:34:00.202Z,98541.00
2023-01-21T07:36:26.555Z,98523.00
2023-01-21T07:38:53.749Z,98525.00
2023-01-21T07:41:20.288Z,98535.00
2023-01-21T07:43:47.822Z,98546.00
2023-01-21T07:46:20.065Z,98541.00
2023-01-21T07:48:51.087Z,98529.00
2023-01-21T07:51:21.353Z,98542.00
2023-01-21T07:53:47.592Z,98549.00
2023-01-21T07:56:14.212Z,98545.00
2023-01-21T07:58:40.307Z,98530.00
2023-01-21T08:01:08.757Z,98553.00
2023-01-21T08:03:36.418Z,98552.00
2023-01-21T08:06:04.692Z,98555.00
2023-01-21T08:08:31.633Z,98563.00
2023-01-21T08:10:57.846Z,98558.00
2023-01-21T08:13:24.360Z,98565.00
2023-01-21T08:15:52.662Z,98552.00
2023-01-21T08:18:21.315Z,98555.00
2023-01-21T08:20:48.563Z,98542.00
2023-01-21T08:23:14.743Z,98544.00
2023-01-21T08:25:41.066Z,98569.00
2023-01-21T08:28:07.418Z,98553.00
2023-01-21T08:30:33.590Z,98565.00
2023-01-21T08:32:59.728Z,98552.00
2023-01-21T08:35:25.883Z,98543.00
2023-01-21T08:37:56.596Z,98564.00
2023-01-21T08:40:25.607Z,98562.00
2023-01-21T08:42:57.693Z,98549.00
2023-01-21T08:45:23.871Z,98561.00
2023-01-21T08:47:50.001Z,98574.00
2023-01-21T08:50:16.792Z,98568.00
2023-01-21T08:52:50.072Z,98562.00
2023-01-21T08:55:16.563Z,98572.00
2023-01-21T08:57:42.894Z,98569.00
2023-01-21T09:00:10.016Z,98576.00
2023-01-21T09:02:36.134Z,98566.00
2023-01-21T09:05:02.375Z,98559.00
2023-01-21T09:07:28.564Z,98576.00
2023-01-21T09:09:54.990Z,98564.00
2023-01-21T09:12:21.117Z,98578.00
2023-01-21T09:14:47.357Z,98567.00
2023-01-21T09:17:13.484Z,98564.00
2023-01-21T09:19:39.652Z,98577.00
2023-01-21T09:22:05.766Z,98575.00
2023-01-21T09:24:32.527Z,98561.00
2023-01-21T09:26:58.619Z,98581.00
2023-01-21T09:29:24.762Z,98578.00
2023-01-21T09:31:50.967Z,98582.00
2023-01-21T09:34:17.195Z,98577.00
2023-01-21T09:36:43.300Z,98583.00
2023-01-21T09:39:09.672Z,98575.00
2023-01-21T09:41:38.720Z,98587.00
2023-01-21T09:44:34.389Z,98593.00
2023-01-21T09:47:30.205Z,98585.00
2023-01-21T09:50:07.087Z,98597.00
2023-01-21T09:52:40.864Z,98607.00
2023-01-21T09:55:21.665Z,98605.00
2023-01-21T09:58:35.342Z,98601.00
2023-01-21T10:01:16.544Z,98606.00
2023-01-21T10:04:01.121Z,98610.00
2023-01-21T10:06:39.610Z,98609.00
2023-01-21T10:09:34.251Z,98633.00
2023-01-21T10:12:36.315Z,98622.00
2023-01-21T10:15:20.351Z,98620.00
2023-01-21T10:18:14.455Z,98626.00
2023-01-21T10:20:52.369Z,98630.00
2023-01-21T10:23:26.735Z,98646.00
2023-01-21T10:26:00.782Z,98629.00
2023-01-21T10:28:32.030Z,98647.00
2023-01-21T10:31:07.781Z,98631.00
2023-01-21T10:33:34.085Z,98643.00
2023-01-21T10:36:34.270Z,98637.00
2023-01-21T10:39:26.268Z,98647.00
2023-01-21T10:42:41.429Z,98644.00
2023-01-21T10:45:35.756Z,98654.00
2023-01-21T10:48:39.322Z,98640.00
2023-01-21T10:51:45.203Z,98659.00
2023-01-21T10:54:22.740Z,98652.00
2023-01-21T10:57:35.196Z,98644.00
2023-01-21T11:00:04.798Z,98645.00
2023-01-21T11:02:33.498Z,98654.00
2023-01-21T11:05:04.596Z,98645.00
2023-01-21T11:07:39.115Z,98638.00
2023-01-21T11:10:06.642Z,98631.00
2023-01-21T11:12:33.180Z,98632.00
2023-01-21T11:15:14.053Z,98636.00
2023-01-21T11:17:44.508Z,98641.00
2023-01-21T11:20:40.177Z,98632.00
2023-01-21T11:23:31.583Z,98622.00
2023-01-21T11:26:20.357Z,98623.00
2023-01-21T11:28:46.530Z,98624.00
2023-01-21T11:31:26.256Z,98624.00
2023-01-21T11:33:54.865Z,98621.00
2023-01-21T11:36:21.221Z,98616.00
2023-01-21T11:39:08.360Z,98613.00
2023-01-21T11:41:35.518Z,98621.00
2023-01-21T11:44:17.068Z,98639.00
2023-01-21T11:46:43.922Z,98626.00
2023-01-21T11:49:09.939Z,98627.00
2023-01-21T11:51:39.997Z,98627.00
2023-01-21T11:54:17.770Z,98615.00
2023-01-21T11:56:58.307Z,98618.00
2023-01-21T11:59:34.929Z,98603.00
2023-01-21T12:02:21.328Z,98610.00
2023-01-21T12:04:56.800Z,98594.00
2023-01-21T12:07:33.101Z,98606.00
2023-01-21T12:10:40.765Z,98608.00
2023-01-21T12:13:21.704Z,98604.00
2023-01-21T12:16:08.767Z,98603.00
2023-01-21T12:19:07.286Z,98611.00
2023-01-21T12:21:59.992Z,98594.00
2023-01-21T12:25:01.809Z,98619.00
2023-01-21T12:28:11.109Z,98603.00
2023-01-21T12:31:20.783Z,98607.00
2023-01-21T12:34:03.816Z,98613.00
2023-01-21T12:36:39.863Z,98616.00
2023-01-21T12:39:20.097Z,98622.00
2023-01-21T12:41:58.104Z,98619.00
2023-01-21T12:44:40.637Z,98632.00
2023-01-21T12:47:20.895Z,98614.00
2023-01-21T12:49:51.326Z,98632.00
2023-01-21T12:52:53.393Z,98614.00
2023-01-21T12:55:49.311Z,98629.00
2023-01-21T12:58:20.177Z,98628.00
2023-01-21T13:00:51.526Z,98626.00
2023-01-21T13:03:32.030Z,98627.00
2023-01-21T13:06:04.599Z,98621.00
2023-01-21T13:08:55.142Z,98636.00
2023-01-21T13:11:32.362Z,98642.00
2023-01-21T13:14:07.727Z,98643.00
2023-01-21T13:16:50.790Z,98631.00
2023-01-21T13:19:16.952Z,98644.00
2023-01-21T13:22:20.756Z,98635.00
2023-01-21T13:25:24.403Z,98636.00
2023-01-21T13:27:59.650Z,98645.00
2023-01-21T13:30:45.372Z,98653.00
2023-01-21T13:33:41.817Z,98653.00
2023-01-21T13:36:32.730Z,98653.00
2023-01-21T13:39:16.948Z,98652.00
2023-01-21T13:42:15.223Z,98655.00
2023-01-21T13:44:59.350Z,98656.00
2023-01-21T13:48:23.109Z,98647.00
2023-01-21T13:51:19.808Z,98656.00
2023-01-21T13:54:18.801Z,98668.00
2023-01-21T13:56:59.715Z,98664.00
2023-01-21T14:00:08.210Z,98652.00
2023-01-21T14:03:08.653Z,98675.00
2023-01-21T14:05:57.420Z,98671.00
2023-01-21T14:08:46.719Z,98681.00
2023-01-21T14:11:24.059Z,98678.00
2023-01-21T14:14:20.367Z,98675.00
2023-01-21T14:17:01.825Z,98685.00
2023-01-21T14:19:54.088Z,98674.00
2023-01-21T14:22:55.052Z,98662.00
2023-01-21T14:25:57.506Z,98666.00
2023-01-21T14:28:37.031Z,98667.00
2023-01-21T14:31:21.143Z,98675.00
2023-01-21T14:34:09.073Z,98658.00
2023-01-21T14:36:48.752Z,98667.00
2023-01-21T14:39:57.237Z,98683.00
2023-01-21T14:42:50.872Z,98677.00
2023-01-21T14:45:21.476Z,98679.00
2023-01-21T14:47:56.967Z,98667.00
2023-01-21T14:50:41.913Z,98666.00
2023-01-21T14:53:21.504Z,98676.00
2023-01-21T14:56:26.950Z,98664.00
2023-01-21T14:59:02.697Z,98672.00
2023-01-21T15:01:46.257Z,98664.00
2023-01-21T15:04:31.791Z,98671.00
2023-01-21T15:07:05.864Z,98665.00
2023-01-21T15:09:42.861Z,98676.00
2023-01-21T15:12:26.446Z,98673.00
2023-01-21T15:15:01.845Z,98671.00
2023-01-21T15:17:44.259Z,98671.00
2023-01-21T15:20:59.866Z,98667.00
2023-01-21T15:23:28.724Z,98665.00
2023-01-21T15:26:31.870Z,98668.00
2023-01-21T15:29:36.163Z,98627.00
2023-01-21T15:32:28.329Z,98674.00
2023-01-21T15:35:23.375Z,98673.00
2023-01-21T15:38:00.854Z,98665.00
2023-01-21T15:40:36.757Z,98667.00
2023-01-21T15:43:23.806Z,98669.00
2023-01-21T15:46:29.267Z,98665.00
2023-01-21T15:49:19.525Z,98671.00
2023-01-21T15:52:31.154Z,98677.00
2023-01-21T15:55:20.644Z,98680.00
2023-01-21T15:58:22.304Z,98686.00
2023-01-21T16:01:32.247Z,98685.00
2023-01-21T16:04:22.824Z,98681.00
2023-01-21T16:07:18.743Z,98689.00
2023-01-21T16:10:42.487Z,98672.00
2023-01-21T16:13:27.101Z,98686.00
2023-01-21T16:16:23.234Z,98678.00
2023-01-21T16:19:04.773Z,98682.00
2023-01-21T16:21:39.406Z,98671.00
2023-01-21T16:24:12.285Z,98664.00
2023-01-21T16:26:38.476Z,98665.00
2023-01-21T16:29:14.284Z,98657.00
2023-01-21T16:31:58.976Z,98667.00
2023-01-21T16:34:30.830Z,98658.00
2023-01-21T16:36:57.516Z,98650.00
2023-01-21T16:39:24.791Z,98651.00
2023-01-21T16:42:04.884Z,98666.00
2023-01-21T16:44:35.048Z,98677.00
2023-01-21T16:47:02.578Z,98679.00
2023-01-21T16:49:28.855Z,98675.00
2023-01-21T16:51:59.227Z,98680.00
2023-01-21T16:54:29.311Z,98679.00
2023-01-21T16:57:04.639Z,98684.00
2023-01-21T16:59:40.814Z,98688.00
2023-01-21T17:02:32.187Z,98681.00
2023-01-21T17:05:03.746Z,98690.00
2023-01-21T17:07:59.809Z,98694.00
2023-01-21T17:10:38.406Z,98706.00
2023-01-21T17:13:14.609Z,98684.00
2023-01-21T17:15:43.495Z,98699.00
2023-01-21T17:18:34.219Z,98687.00
2023-01-21T17:21:14.640Z,98696.00
2023-01-21T17:23:53.127Z,98681.00
2023-01-21T17:26:28.661Z,98679.00
2023-01-21T17:29:06.876Z,98698.00
2023-01-21T17:32:21.295Z,98689.00
2023-01-21T17:35:14.542Z,98703.00
2023-01-21T17:37:50.328Z,98699.00
2023-01-21T17:40:57.884Z,98698.00
2023-01-21T17:43:25.162Z,98714.00
2023-01-21T17:45:54.167Z,98718.00
2023-01-21T17:48:34.506Z,98717.00
2023-01-21T17:51:18.355Z,98718.00
2023-01-21T17:54:06.074Z,98712.00
2023-01-21T17:56:53.844Z,98729.00
2023-01-21T17:59:37.777Z,98716.00
2023-01-21T18:02:14.132Z,98728.00
2023-01-21T18:04:41.227Z,98709.00
2023-01-21T18:07:29.034Z,98712.00
2023-01-21T18:10:04.155Z,98709.00
2023-01-21T18:12:30.310Z,98711.00
2023-01-21T18:14:57.705Z,98714.00
2023-01-21T18:17:24.768Z,98689.00
2023-01-21T18:19:51.138Z,98711.00
2023-01-21T18:22:28.229Z,98696.00
2023-01-21T18:24:55.262Z,98708.00
2023-01-21T18:27:25.683Z,98703.00
2023-01-21T18:29:53.031Z,98704.00
2023-01-21T18:32:19.289Z,98712.00
2023-01-21T18:34:46.362Z,98724.00
2023-01-21T18:37:18.832Z,98712.00
2023-01-21T18:39:45.579Z,98717.00
2023-01-21T18:42:15.361Z,98726.00
2023-01-21T18:44:41.961Z,98725.00
2023-01-21T18:47:14.817Z,98702.00
2023-01-21T18:49:41.712Z,98699.00
2023-01-21T18:52:15.700Z,98720.00
2023-01-21T18:54:41.974Z,98697.00
2023-01-21T18:57:17.204Z,98700.00
2023-01-21T18:59:43.590Z,98701.00
2023-01-21T19:02:20.057Z,98689.00
2023-01-21T19:04:46.949Z,98683.00
2023-01-21T19:07:19.288Z,98679.00
2023-01-21T19:09:46.606Z,98673.00
2023-01-21T19:12:16.083Z,98696.00
2023-01-21T19:14:42.282Z,98677.00
2023-01-21T19:17:25.536Z,98690.00
2023-01-21T19:19:53.169Z,98683.00
2023-01-21T19:22:19.560Z,98675.00
2023-01-21T19:24:46.641Z,98681.00
2023-01-21T19:27:28.349Z,98682.00
2023-01-21T19:29:54.518Z,98668.00
2023-01-21T19:32:20.672Z,98686.00
2023-01-21T19:34:46.817Z,98688.00
2023-01-21T19:37:16.275Z,98692.00
2023-01-21T19:39:42.385Z,98691.00
2023-01-21T19:42:14.406Z,98677.00
2023-01-21T19:44:41.799Z,98670.00
2023-01-21T19:47:26.850Z,98676.00
2023-01-21T19:49:52.985Z,98674.00
2023-01-21T19:52:19.090Z,98675.00
2023-01-21T19:54:45.375Z,98680.00
2023-01-21T19:57:15.010Z,98673.00
2023-01-21T19:59:43.984Z,98676.00
2023-01-21T20:02:13.219Z,98665.00
2023-01-21T20:04:39.382Z,98682.00
2023-01-21T20:07:06.389Z,98673.00
2023-01-21T20:09:32.619Z,98674.00
2023-01-21T20:11:58.786Z,98674.00
2023-01-21T20:14:25.088Z,98683.00
2023-01-21T20:16:53.894Z,98685.00
2023-01-21T20:19:21.876Z,98696.00
2023-01-21T20:21:59.897Z,98701.00
2023-01-21T20:24:29.263Z,98673.00
2023-01-21T20:26:55.401Z,98688.00
2023-01-21T20:29:21.495Z,98676.00
2023-01-21T20:31:47.684Z,98687.00
2023-01-21T20:34:13.829Z,98675.00
2023-01-21T20:36:43.444Z,98670.00
2023-01-21T20:39:12.313Z,98670.00
2023-01-21T20:41:40.080Z,98660.00
2023-01-21T20:44:06.721Z,98669.00
2023-01-21T20:46:33.167Z,98660.00
2023-01-21T20:49:00.683Z,98659.00
2023-01-21T20:51:27.078Z,98666.00
2023-01-21T20:53:53.259Z,98656.00
2023-01-21T20:56:26.310Z,98654.00
2023-01-21T20:58:52.799Z,98656.00
2023-01-21T21:01:21.833Z,98667.00
2023-01-21T21:03:49.096Z,98659.00
2023-01-21T21:06:21.968Z,98666.00
2023-01-21T21:08:49.253Z,98667.00
2023-01-21T21:11:17.079Z,98662.00
2023-01-21T21:13:46.165Z,98676.00
2023-01-21T21:16:29.076Z,98678.00
2023-01-21T21:18:55.789Z,98671.00
2023-01-21T21:21:23.823Z,98670.00
2023-01-21T21:23:51.443Z,98665.00
2023-01-21T21:26:28.316Z,98664.00
2023-01-21T21:28:56.708Z,98658.00
2023-01-21T21:31:24.373Z,98662.00
2023-01-21T21:33:50.819Z,98649.00
2023-01-21T21:36:21.080Z,98656.00
2023-01-21T21:38:48.136Z,98650.00
2023-01-21T21:41:37.087Z,98671.00
2023-01-21T21:44:05.178Z,98664.00
2023-01-21T21:46:50.152Z,98658.00
2023-01-21T21:49:18.877Z,98665.00
2023-01-21T21:51:45.949Z,98655.00
2023-01-21T21:54:15.341Z,98663.00
2023-01-21T21:56:42.626Z,98669.00
2023-01-21T21:59:10.924Z,98658.00
2023-01-21T22:01:37.131Z,98660.00
2023-01-21T22:04:03.908Z,98670.00
2023-01-21T22:06:31.776Z,98682.00
2023-01-21T22:08:58.978Z,98693.00
2023-01-21T22:11:27.679Z,98677.00
2023-01-21T22:13:55.439Z,98687.00
2023-01-21T22:16:27.348Z,98678.00
2023-01-21T22:18:55.957Z,98676.00
2023-01-21T22:21:28.916Z,98668.00
2023-01-21T22:23:55.528Z,98673.00
2023-01-21T22:26:25.283Z,98672.00
2023-01-21T22:28:52.243Z,98668.00
2023-01-21T22:31:28.654Z,98667.00
2023-01-21T22:33:56.470Z,98652.00
2023-01-21T22:36:25.736Z,98653.00
2023-01-21T22:38:52.740Z,98653.00
2023-01-21T22:41:21.648Z,98655.00
2023-01-21T22:43:49.009Z,98666.00
2023-01-21T22:46:19.475Z,98653.00
2023-01-21T22:48:46.098Z,98656.00
2023-01-21T22:51:14.886Z,98640.00
2023-01-21T22:53:42.910Z,98652.00
2023-01-21T22:56:12.218Z,98658.00
2023-01-21T22:58:38.340Z,98641.00
2023-01-21T23:01:05.260Z,98639.00
2023-01-21T23:03:31.781Z,98641.00
2023-01-21T23:06:07.752Z,98646.00
2023-01-21T23:08:36.642Z,98631.00
2023-01-21T23:11:06.376Z,98633.00
2023-01-21T23:13:34.068Z,98636.00
2023-01-21T23:16:01.034Z,98628.00
2023-01-21T23:18:28.897Z,98625.00
2023-01-21T23:20:55.749Z,98626.00
2023-01-21T23:23:23.117Z,98630.00
2023-01-21T23:25:49.454Z,98612.00
2023-01-21T23:28:15.880Z,98626.00
2023-01-21T23:30:42.762Z,98614.00
2023-01-21T23:33:11.295Z,98630.00
2023-01-21T23:35:37.413Z,98610.00
2023-01-21T23:38:03.560Z,98615.00
2023-01-21T23:40:29.692Z,98610.00
2023-01-21T23:42:55.792Z,98609.00
2023-01-21T23:45:21.928Z,98607.00
2023-01-21T23:47:48.081Z,98608.00
2023-01-21T23:50:14.450Z,98617.00
2023-01-21T23:52:40.668Z,98596.00
2023-01-21T23:55:09.734Z,98613.00
2023-01-21T23:57:35.959Z,98605.00
